SE-0007 weather

Public forecast

Using degrees Celsius for public forecast. Weather courtesy of forecast.io.

Closest aviation weather report (METAR) to Staffanstorp Bjällerup Field

Closest report is Malmö Sturup Airport, 8.3 nm (15.3 km) SSE. Retrieved 2020/08/12 11:20 UTC (39 minutes ago):

ESMS 121120Z 15009KT 100V170 CAVOK 23/12 Q1023

Closest aviation forecast (TAF) to Staffanstorp Bjällerup Field

Closest forecast is Malmö Sturup Airport, 8.3 nm (15.3 km) SSE. Retrieved 2020/08/12 06:00 UTC (6 hours ago):

TAF ESGG 120530Z 1206/1306 19005KT CAVOK TAF ESMS 120504Z 1206/1306 10008KT CAVOK